Time;durP1;ratioP1;P1;durP2;ratioP2;P2;SDS_P1;SDS_P2;PMS_P1;PMS_P2;Temp;Humidity;BMP_temperature;BMP_pressure;BME280_temperature;BME280_humidity;BME280_pressure;Samples;Min_cycle;Max_cycle;Signal;HPM_P1;HPM_P2
2022/01/01 00:02:05;;;;;;;36.65;8.65;;;9.20;99.90;;;;;;5057156;28;20208;-81
2022/01/01 00:04:30;;;;;;;34.00;8.32;;;8.80;99.90;;;;;;5064384;28;20044;-80
2022/01/01 00:06:59;;;;;;;49.22;15.23;;;8.80;99.90;;;;;;5062303;28;20044;-80
2022/01/01 00:09:25;;;;;;;69.90;22.27;;;8.70;99.90;;;;;;5065901;28;20048;-80
2022/01/01 00:11:51;;;;;;;68.72;19.25;;;8.70;99.90;;;;;;5081632;28;20816;-81
2022/01/01 00:14:16;;;;;;;46.00;12.55;;;8.80;99.90;;;;;;5048672;28;20047;-80
2022/01/01 00:16:42;;;;;;;42.95;10.98;;;8.70;99.90;;;;;;5046043;28;20489;-79
2022/01/01 00:19:08;;;;;;;47.65;13.43;;;8.70;99.90;;;;;;5047429;28;22195;-80
2022/01/01 00:21:33;;;;;;;40.90;12.93;;;8.70;99.90;;;;;;5063376;28;20046;-80
2022/01/01 00:23:59;;;;;;;47.72;11.82;;;8.70;99.90;;;;;;5062665;28;20489;-80
2022/01/01 00:26:25;;;;;;;41.15;12.13;;;8.60;99.90;;;;;;5079395;28;20044;-80
2022/01/01 00:28:50;;;;;;;43.40;10.88;;;8.60;99.90;;;;;;5078908;28;20052;-80
2022/01/01 00:31:16;;;;;;;50.40;12.68;;;8.60;99.90;;;;;;5076038;28;20044;-80
2022/01/01 00:33:42;;;;;;;50.45;15.55;;;8.60;99.90;;;;;;5063711;28;20090;-80
2022/01/01 00:36:08;;;;;;;55.55;14.45;;;8.60;99.90;;;;;;5056858;28;20055;-80
2022/01/01 00:38:34;;;;;;;45.92;15.50;;;8.50;99.90;;;;;;5066226;28;20086;-81
2022/01/01 00:40:59;;;;;;;62.53;17.25;;;8.50;99.90;;;;;;5079549;28;20462;-80
2022/01/01 00:43:25;;;;;;;60.63;20.25;;;8.50;99.90;;;;;;5064656;28;20123;-80
2022/01/01 00:45:51;;;;;;;54.22;19.67;;;8.40;99.90;;;;;;5043432;28;20125;-81
2022/01/01 00:48:17;;;;;;;57.30;19.38;;;8.40;99.90;;;;;;5047154;28;20394;-80
2022/01/01 00:50:43;;;;;;;64.13;20.85;;;8.40;99.90;;;;;;5054825;28;20044;-80
2022/01/01 00:53:08;;;;;;;58.88;19.20;;;8.40;99.90;;;;;;5095716;28;20097;-80
2022/01/01 00:55:34;;;;;;;56.17;17.55;;;8.30;99.90;;;;;;5066175;28;20052;-80
2022/01/01 00:58:00;;;;;;;65.00;18.77;;;8.30;99.90;;;;;;5066627;28;20047;-80
2022/01/01 01:00:26;;;;;;;56.15;17.75;;;8.20;99.90;;;;;;5077582;28;20043;-78
2022/01/01 01:02:52;;;;;;;63.80;19.10;;;8.20;99.90;;;;;;5056899;28;20055;-78
2022/01/01 01:05:18;;;;;;;60.88;17.65;;;8.20;99.90;;;;;;5067895;28;20051;-79
2022/01/01 01:07:43;;;;;;;51.65;15.25;;;8.20;99.90;;;;;;5067041;28;20820;-79
2022/01/01 01:10:12;;;;;;;64.03;16.65;;;8.10;99.90;;;;;;5064491;28;20041;-79
2022/01/01 01:12:43;;;;;;;65.80;19.70;;;8.10;99.90;;;;;;5068698;28;20058;-79
2022/01/01 01:15:11;;;;;;;59.97;16.42;;;8.10;99.90;;;;;;5068091;28;20113;-79
2022/01/01 01:17:37;;;;;;;53.17;16.20;;;8.10;99.90;;;;;;5068250;28;20063;-80
2022/01/01 01:20:04;;;;;;;54.65;14.60;;;8.20;99.90;;;;;;5068062;28;20041;-79
2022/01/01 01:22:30;;;;;;;50.15;12.57;;;8.20;99.90;;;;;;5066709;28;20763;-79
2022/01/01 01:24:56;;;;;;;50.80;11.98;;;8.20;99.90;;;;;;5053092;28;20048;-80
2022/01/01 01:27:23;;;;;;;48.13;11.75;;;8.20;99.90;;;;;;5083686;28;20150;-79
2022/01/01 01:29:49;;;;;;;58.50;12.68;;;8.20;99.90;;;;;;5049959;28;20556;-79
2022/01/01 01:32:15;;;;;;;53.88;12.30;;;8.20;99.90;;;;;;5068587;28;20047;-79
2022/01/01 01:34:41;;;;;;;58.42;12.05;;;8.20;99.90;;;;;;5068393;28;20143;-79
2022/01/01 01:37:07;;;;;;;59.55;11.98;;;8.20;99.90;;;;;;5080609;28;20098;-79
2022/01/01 01:39:32;;;;;;;58.15;12.82;;;8.30;99.90;;;;;;5064679;28;20489;-80
2022/01/01 01:41:58;;;;;;;49.83;13.25;;;8.80;99.90;;;;;;5066947;28;20051;-79
2022/01/01 01:44:41;;;;;;;57.75;13.18;;;8.30;99.90;;;;;;5052902;28;20651;-79
2022/01/01 01:47:14;;;;;;;60.72;12.07;;;8.40;99.90;;;;;;5085027;28;20043;-79
2022/01/01 01:49:41;;;;;;;50.78;12.02;;;8.40;99.90;;;;;;5052816;28;20051;-79
2022/01/01 01:52:08;;;;;;;55.40;12.27;;;8.40;99.90;;;;;;5076487;28;20532;-80
2022/01/01 01:54:34;;;;;;;56.00;12.10;;;8.40;99.90;;;;;;5083861;28;20091;-80
2022/01/01 01:56:59;;;;;;;43.30;10.38;;;8.40;99.90;;;;;;5061802;28;20835;-80
2022/01/01 01:59:25;;;;;;;53.38;11.70;;;8.40;99.90;;;;;;5051641;28;20052;-79
2022/01/01 02:01:52;;;;;;;51.63;10.85;;;8.40;99.90;;;;;;5083704;28;20093;-79
2022/01/01 02:04:18;;;;;;;43.70;10.43;;;8.40;99.90;;;;;;5048972;28;20082;-79
2022/01/01 02:06:44;;;;;;;51.45;10.93;;;8.30;99.90;;;;;;5081302;28;20079;-79
2022/01/01 02:09:11;;;;;;;40.78;10.15;;;8.40;99.90;;;;;;5062376;28;20442;-79
2022/01/01 02:11:38;;;;;;;49.65;11.60;;;8.40;99.90;;;;;;5084027;28;20040;-79
2022/01/01 02:14:13;;;;;;;47.28;10.25;;;8.50;99.90;;;;;;5048961;28;20506;-79
2022/01/01 02:17:05;;;;;;;47.43;11.00;;;8.50;99.90;;;;;;5081557;28;20501;-79
2022/01/01 02:19:26;;;;;;;48.97;9.18;;;8.50;99.90;;;;;;5082010;28;20048;-79
2022/01/01 02:21:54;;;;;;;49.80;9.35;;;8.40;99.90;;;;;;5082197;28;20048;-79
2022/01/01 02:24:20;;;;;;;51.30;9.88;;;8.40;99.90;;;;;;5082447;28;20106;-79
2022/01/01 02:26:46;;;;;;;53.30;10.52;;;8.40;99.90;;;;;;5082249;28;20053;-79
2022/01/01 02:29:12;;;;;;;60.10;9.85;;;8.40;99.90;;;;;;5049378;28;20044;-79
2022/01/01 02:31:38;;;;;;;64.35;11.18;;;8.40;99.90;;;;;;5051756;28;20043;-80
2022/01/01 02:34:05;;;;;;;59.80;10.50;;;8.40;99.90;;;;;;5064927;28;20123;-80
2022/01/01 02:36:37;;;;;;;45.60;9.45;;;8.40;99.90;;;;;;5066377;28;20052;-80
2022/01/01 02:39:21;;;;;;;46.95;10.07;;;8.40;99.90;;;;;;5082030;28;20040;-80
2022/01/01 02:41:51;;;;;;;56.72;11.02;;;8.40;99.90;;;;;;5060007;28;20048;-80
2022/01/01 02:44:19;;;;;;;51.92;10.65;;;8.40;99.90;;;;;;5067709;28;20044;-80
2022/01/01 02:46:45;;;;;;;61.63;11.73;;;8.40;99.90;;;;;;5076074;28;20067;-79
2022/01/01 02:49:10;;;;;;;55.55;10.70;;;8.30;99.90;;;;;;5067141;28;20634;-80
2022/01/01 02:51:37;;;;;;;60.80;12.43;;;8.40;99.90;;;;;;5081773;28;20047;-80
2022/01/01 02:54:02;;;;;;;62.22;11.65;;;8.30;99.90;;;;;;5065147;28;20044;-80
2022/01/01 02:56:28;;;;;;;46.40;10.88;;;8.30;99.90;;;;;;5046135;28;20059;-80
2022/01/01 02:58:54;;;;;;;52.13;11.63;;;8.30;99.90;;;;;;5050985;28;20047;-80
2022/01/01 03:01:20;;;;;;;68.32;11.30;;;8.30;99.90;;;;;;5048407;28;20037;-79
2022/01/01 03:03:49;;;;;;;52.78;11.20;;;8.30;99.90;;;;;;5065333;28;20048;-79
2022/01/01 03:06:19;;;;;;;63.97;11.15;;;8.40;99.90;;;;;;5065085;28;20470;-80
2022/01/01 03:08:51;;;;;;;49.63;10.55;;;8.40;99.90;;;;;;5055098;28;20055;-80
2022/01/01 03:11:18;;;;;;;51.78;10.55;;;8.20;99.90;;;;;;5070212;28;20050;-79
2022/01/01 03:13:44;;;;;;;68.82;12.40;;;8.20;99.90;;;;;;5083775;28;20554;-80
2022/01/01 03:16:11;;;;;;;50.38;10.55;;;8.20;99.90;;;;;;5068873;28;20762;-80
2022/01/01 03:18:37;;;;;;;58.75;10.18;;;8.20;99.90;;;;;;5083369;28;20484;-80
2022/01/01 03:21:04;;;;;;;52.33;10.68;;;8.20;99.90;;;;;;5067509;28;20043;-80
2022/01/01 03:23:29;;;;;;;52.28;10.52;;;8.20;99.90;;;;;;5062642;28;20044;-80
2022/01/01 03:25:55;;;;;;;58.78;11.63;;;8.20;99.90;;;;;;5071078;28;20046;-80
2022/01/01 03:28:21;;;;;;;45.17;10.85;;;8.20;99.90;;;;;;5066854;28;20155;-79
2022/01/01 03:30:46;;;;;;;54.22;11.50;;;8.70;99.90;;;;;;5037127;28;20054;-80
2022/01/01 03:33:12;;;;;;;55.28;10.82;;;8.30;99.90;;;;;;5081512;28;20044;-79
2022/01/01 03:35:38;;;;;;;45.10;10.73;;;8.30;99.90;;;;;;5067083;28;20569;-80
2022/01/01 03:38:04;;;;;;;51.22;11.82;;;8.30;99.90;;;;;;5083261;28;20459;-80
2022/01/01 03:40:29;;;;;;;50.17;10.68;;;8.30;99.90;;;;;;5051866;28;20485;-79
2022/01/01 03:42:55;;;;;;;53.10;10.70;;;8.30;99.90;;;;;;5053394;28;20074;-79
2022/01/01 03:45:21;;;;;;;53.03;10.85;;;8.30;99.90;;;;;;5083923;28;20093;-80
2022/01/01 03:47:47;;;;;;;42.00;10.45;;;8.30;99.90;;;;;;5084179;28;20043;-79
2022/01/01 03:50:13;;;;;;;49.40;11.48;;;8.30;99.90;;;;;;5069712;28;20092;-79
2022/01/01 03:52:43;;;;;;;43.58;10.13;;;8.30;99.90;;;;;;5036575;28;20057;-79
2022/01/01 03:55:10;;;;;;;43.28;9.95;;;8.30;99.90;;;;;;5064103;28;20047;-80
2022/01/01 03:57:36;;;;;;;43.97;10.38;;;8.30;99.90;;;;;;5053339;28;20096;-80
2022/01/01 04:00:07;;;;;;;44.08;9.65;;;7.80;99.90;;;;;;5063017;28;20047;-81
2022/01/01 04:02:33;;;;;;;48.50;11.02;;;8.30;99.90;;;;;;5084282;28;20043;-80
2022/01/01 04:04:59;;;;;;;49.40;10.75;;;8.40;99.90;;;;;;5053003;28;20093;-80
2022/01/01 04:07:25;;;;;;;48.33;12.30;;;8.30;99.90;;;;;;5079077;28;20092;-80
2022/01/01 04:09:50;;;;;;;55.95;11.07;;;8.30;99.90;;;;;;5065021;28;20056;-80
2022/01/01 04:12:19;;;;;;;41.58;11.40;;;8.40;99.90;;;;;;5065444;28;20045;-80
2022/01/01 04:14:45;;;;;;;52.38;11.70;;;8.40;99.90;;;;;;5050135;28;20463;-80
2022/01/01 04:17:11;;;;;;;67.82;13.25;;;8.50;99.90;;;;;;5065125;28;20119;-80
2022/01/01 04:19:39;;;;;;;51.00;12.40;;;8.50;99.90;;;;;;5065858;28;20101;-79
2022/01/01 04:22:07;;;;;;;57.33;13.95;;;8.60;99.90;;;;;;5064093;28;20044;-79
2022/01/01 04:24:33;;;;;;;72.57;15.90;;;8.60;99.90;;;;;;5077816;28;20566;-79
2022/01/01 04:26:59;;;;;;;93.63;17.52;;;8.80;99.90;;;;;;5060123;28;20048;-80
2022/01/01 04:29:24;;;;;;;88.95;18.92;;;8.70;99.90;;;;;;5042645;28;20101;-79
2022/01/01 04:31:50;;;;;;;92.50;19.55;;;8.80;99.90;;;;;;5070236;28;20410;-79
2022/01/01 04:34:16;;;;;;;71.65;17.50;;;8.90;99.90;;;;;;5083078;28;20385;-79
2022/01/01 04:36:49;;;;;;;75.68;19.40;;;9.20;99.90;;;;;;5067235;28;20059;-79
2022/01/01 04:39:15;;;;;;;76.50;17.40;;;9.10;99.90;;;;;;5037021;28;20122;-80
2022/01/01 04:41:41;;;;;;;67.97;16.60;;;9.10;99.90;;;;;;5069071;28;20048;-78
2022/01/01 04:44:08;;;;;;;72.13;17.17;;;9.10;99.90;;;;;;5085137;28;20446;-79
2022/01/01 04:46:34;;;;;;;66.07;15.73;;;9.10;99.90;;;;;;5052281;28;20078;-79
2022/01/01 04:49:00;;;;;;;54.80;15.70;;;9.10;99.90;;;;;;5084779;28;20040;-79
2022/01/01 04:51:26;;;;;;;76.22;16.30;;;9.00;99.90;;;;;;5064323;28;20057;-80
2022/01/01 04:53:58;;;;;;;56.53;16.55;;;9.10;99.90;;;;;;5067145;28;20052;-79
2022/01/01 04:56:24;;;;;;;64.53;16.02;;;9.00;99.90;;;;;;5043964;28;20064;-79
2022/01/01 04:58:50;;;;;;;66.82;16.70;;;9.00;99.90;;;;;;5068120;28;20048;-79
2022/01/01 05:01:18;;;;;;;67.60;17.30;;;9.00;99.90;;;;;;5083223;28;20079;-79
2022/01/01 05:03:44;;;;;;;52.72;16.98;;;9.10;99.90;;;;;;5066309;28;20059;-79
2022/01/01 05:06:09;;;;;;;62.95;18.15;;;9.10;99.90;;;;;;5061581;28;22065;-79
2022/01/01 05:08:35;;;;;;;55.78;17.35;;;9.10;99.90;;;;;;5049252;28;20052;-79
2022/01/01 05:11:01;;;;;;;59.10;17.92;;;9.10;99.90;;;;;;5066586;28;20127;-79
2022/01/01 05:13:26;;;;;;;62.42;18.40;;;9.10;99.90;;;;;;5081729;28;20044;-78
2022/01/01 05:15:55;;;;;;;60.78;18.33;;;9.10;99.90;;;;;;5046064;28;20101;-79
2022/01/01 05:18:21;;;;;;;50.60;17.20;;;9.10;99.90;;;;;;5083235;28;20113;-79
2022/01/01 05:20:47;;;;;;;56.40;17.90;;;9.10;99.90;;;;;;5067968;28;20044;-79
2022/01/01 05:23:12;;;;;;;59.40;17.55;;;9.10;99.90;;;;;;5068417;28;20059;-80
2022/01/01 05:25:38;;;;;;;52.25;16.00;;;9.10;99.90;;;;;;5068614;28;20583;-79
2022/01/01 05:28:04;;;;;;;45.15;14.95;;;9.00;99.90;;;;;;5068149;28;20072;-79
2022/01/01 05:30:30;;;;;;;47.28;14.18;;;9.00;99.90;;;;;;5082515;28;20048;-78
2022/01/01 05:32:58;;;;;;;41.72;14.02;;;8.90;99.90;;;;;;5034745;28;20408;-79
2022/01/01 05:35:24;;;;;;;39.28;12.85;;;8.90;99.90;;;;;;5077615;28;20058;-78
2022/01/01 05:37:50;;;;;;;45.90;13.82;;;8.80;99.90;;;;;;5044725;28;20486;-78
2022/01/01 05:40:16;;;;;;;39.03;12.35;;;8.80;99.90;;;;;;5065654;28;20044;-79
2022/01/01 05:42:42;;;;;;;36.72;12.25;;;8.70;99.90;;;;;;5063428;28;20512;-79
2022/01/01 05:45:08;;;;;;;36.53;11.32;;;8.70;99.90;;;;;;5050975;28;20056;-79
2022/01/01 05:47:34;;;;;;;36.33;11.13;;;8.70;99.90;;;;;;5065554;28;20044;-79
2022/01/01 05:50:00;;;;;;;41.63;10.35;;;8.70;99.90;;;;;;5083972;28;20047;-79
2022/01/01 05:52:25;;;;;;;28.75;10.07;;;8.70;99.90;;;;;;5066541;28;20052;-79
2022/01/01 05:54:51;;;;;;;33.95;10.88;;;8.70;99.90;;;;;;5068846;28;20384;-79
2022/01/01 05:57:17;;;;;;;35.20;11.20;;;8.70;99.90;;;;;;5060150;28;20119;-79
2022/01/01 05:59:43;;;;;;;41.92;11.32;;;8.70;99.90;;;;;;5068050;28;20059;-79
2022/01/01 06:02:09;;;;;;;44.20;11.50;;;8.80;99.90;;;;;;5082457;28;20055;-79
2022/01/01 06:04:35;;;;;;;41.65;11.45;;;8.80;99.90;;;;;;5079283;28;20044;-80
2022/01/01 06:07:02;;;;;;;47.03;12.70;;;8.90;99.90;;;;;;5060692;28;20108;-79
2022/01/01 06:09:28;;;;;;;46.65;12.98;;;9.00;99.90;;;;;;5066508;28;20048;-79
2022/01/01 06:11:54;;;;;;;37.47;10.85;;;9.00;99.90;;;;;;5067159;28;20402;-80
2022/01/01 06:14:21;;;;;;;38.22;11.38;;;9.10;99.90;;;;;;5080396;28;20045;-79
2022/01/01 06:16:47;;;;;;;38.35;11.77;;;9.00;99.90;;;;;;5067108;28;20052;-79
2022/01/01 06:19:13;;;;;;;39.53;11.85;;;9.10;99.90;;;;;;5068172;28;20055;-79
2022/01/01 06:21:39;;;;;;;46.00;12.57;;;9.20;99.90;;;;;;5082075;28;20112;-79
2022/01/01 06:24:06;;;;;;;36.50;13.98;;;9.10;99.90;;;;;;5078858;28;20056;-79
2022/01/01 06:26:31;;;;;;;37.15;12.75;;;9.20;99.90;;;;;;5060554;28;20450;-79
2022/01/01 06:28:57;;;;;;;38.42;13.45;;;9.30;99.90;;;;;;5051521;28;20076;-79
2022/01/01 06:31:23;;;;;;;40.95;14.00;;;9.30;99.90;;;;;;5065810;28;20078;-79
2022/01/01 06:33:49;;;;;;;34.70;12.57;;;9.40;99.90;;;;;;5035104;28;20080;-79
2022/01/01 06:36:17;;;;;;;35.92;12.70;;;9.40;99.90;;;;;;5051608;28;20478;-78
2022/01/01 06:38:45;;;;;;;34.28;13.30;;;9.40;99.90;;;;;;5066903;28;20052;-79
2022/01/01 06:41:11;;;;;;;37.88;12.82;;;9.40;99.90;;;;;;5065802;28;20035;-79
2022/01/01 06:43:38;;;;;;;32.55;10.85;;;9.40;99.90;;;;;;5064091;28;20036;-79
2022/01/01 06:46:05;;;;;;;32.90;10.45;;;9.40;99.90;;;;;;5065408;28;20054;-79
2022/01/01 06:48:31;;;;;;;27.27;10.07;;;9.30;99.90;;;;;;5066574;28;20443;-79
2022/01/01 06:50:57;;;;;;;28.70;9.38;;;9.30;99.90;;;;;;5050292;28;20040;-79
2022/01/01 06:53:23;;;;;;;33.97;10.30;;;9.30;99.90;;;;;;5077371;28;20044;-79
2022/01/01 06:55:48;;;;;;;31.50;11.38;;;9.30;99.90;;;;;;5080732;28;20048;-79
2022/01/01 06:58:14;;;;;;;33.10;10.95;;;9.20;99.90;;;;;;5080004;28;20508;-79
2022/01/01 07:00:40;;;;;;;31.67;11.95;;;9.30;99.90;;;;;;5080112;28;20410;-79
2022/01/01 07:03:06;;;;;;;33.97;11.60;;;9.30;99.90;;;;;;5065127;28;20125;-79
2022/01/01 07:05:31;;;;;;;33.13;12.38;;;9.30;99.90;;;;;;5080905;28;20465;-79
2022/01/01 07:07:57;;;;;;;37.00;13.65;;;9.30;99.90;;;;;;5047754;28;20109;-79
2022/01/01 07:10:23;;;;;;;39.22;13.55;;;9.30;99.90;;;;;;5080874;28;20123;-79
2022/01/01 07:12:49;;;;;;;39.90;12.93;;;9.30;99.90;;;;;;5066757;28;20052;-79
2022/01/01 07:15:18;;;;;;;34.42;13.07;;;9.40;99.90;;;;;;5062827;28;20052;-79
2022/01/01 07:17:44;;;;;;;40.90;13.55;;;9.30;99.90;;;;;;5078509;28;20047;-79
2022/01/01 07:20:10;;;;;;;37.45;13.40;;;9.40;99.90;;;;;;5062254;28;20044;-79
2022/01/01 07:22:44;;;;;;;42.28;14.77;;;9.40;99.90;;;;;;5048112;28;20039;-79
2022/01/01 07:25:10;;;;;;;39.22;14.23;;;9.40;99.90;;;;;;5066176;28;20401;-79
2022/01/01 07:27:37;;;;;;;38.95;15.23;;;9.40;99.90;;;;;;5079470;28;20044;-80
2022/01/01 07:30:05;;;;;;;44.67;15.15;;;9.40;99.90;;;;;;5066176;28;20036;-79
2022/01/01 07:32:31;;;;;;;37.50;14.77;;;9.40;99.90;;;;;;5057606;28;20481;-79
2022/01/01 07:34:57;;;;;;;42.88;15.10;;;9.40;99.90;;;;;;5065067;28;20055;-79
2022/01/01 07:37:23;;;;;;;39.17;15.35;;;9.40;99.90;;;;;;5065829;28;20062;-79
2022/01/01 07:39:49;;;;;;;40.42;15.25;;;9.40;99.90;;;;;;5044063;28;20131;-78
2022/01/01 07:42:14;;;;;;;36.30;15.00;;;9.50;99.90;;;;;;5067772;28;20478;-79
2022/01/01 07:44:41;;;;;;;34.05;13.68;;;9.50;99.90;;;;;;5066978;28;20116;-78
2022/01/01 07:47:07;;;;;;;38.63;14.57;;;9.50;99.90;;;;;;5082571;28;20040;-79
2022/01/01 07:49:33;;;;;;;33.65;14.95;;;9.50;99.90;;;;;;5066429;28;20079;-79
2022/01/01 07:51:59;;;;;;;36.47;15.40;;;9.50;99.90;;;;;;5077981;28;20067;-80
2022/01/01 07:54:24;;;;;;;37.65;14.65;;;9.50;99.90;;;;;;5050382;28;20409;-80
2022/01/01 07:56:50;;;;;;;44.70;16.00;;;9.50;99.90;;;;;;5066470;28;20077;-78
2022/01/01 07:59:16;;;;;;;43.95;15.68;;;9.50;99.90;;;;;;5050940;28;20127;-78
2022/01/01 08:01:43;;;;;;;35.25;14.95;;;9.50;99.90;;;;;;5028294;28;20063;-78
2022/01/01 08:04:09;;;;;;;46.40;15.95;;;9.50;99.90;;;;;;5067720;28;20055;-78
2022/01/01 08:06:35;;;;;;;37.38;15.48;;;9.50;99.90;;;;;;5067259;28;20382;-79
2022/01/01 08:09:02;;;;;;;42.50;16.83;;;9.50;99.90;;;;;;5070258;28;20097;-79
2022/01/01 08:11:28;;;;;;;40.67;16.63;;;9.60;99.90;;;;;;5083302;28;20047;-79
2022/01/01 08:13:54;;;;;;;38.40;16.13;;;9.60;99.90;;;;;;5049552;28;20047;-78
2022/01/01 08:16:20;;;;;;;43.45;16.80;;;9.60;99.90;;;;;;5068833;28;20078;-78
2022/01/01 08:18:46;;;;;;;44.55;17.65;;;9.60;99.90;;;;;;5084655;28;20512;-78
2022/01/01 08:21:11;;;;;;;34.72;15.18;;;9.60;99.90;;;;;;5070297;28;20035;-78
2022/01/01 08:23:37;;;;;;;40.08;17.05;;;9.60;99.90;;;;;;5084336;28;20044;-78
2022/01/01 08:26:03;;;;;;;40.67;15.13;;;9.60;99.90;;;;;;5085806;28;20405;-78
2022/01/01 08:28:29;;;;;;;34.63;15.85;;;9.60;99.90;;;;;;5069646;28;20043;-79
2022/01/01 08:30:55;;;;;;;28.45;13.85;;;9.60;99.90;;;;;;5083275;28;20047;-78
2022/01/01 08:33:21;;;;;;;28.20;11.85;;;9.60;99.90;;;;;;5086463;28;20506;-81
2022/01/01 08:35:47;;;;;;;29.95;12.55;;;9.60;99.90;;;;;;5085752;28;20621;-79
2022/01/01 08:38:15;;;;;;;29.50;12.23;;;9.60;99.90;;;;;;5070606;28;20043;-79
2022/01/01 08:40:42;;;;;;;30.33;12.05;;;9.60;99.90;;;;;;5056712;28;20101;-79
2022/01/01 08:43:08;;;;;;;23.73;12.60;;;9.70;99.90;;;;;;5088698;28;20126;-80
2022/01/01 08:45:36;;;;;;;22.85;11.50;;;9.70;99.90;;;;;;5071417;28;20126;-79
2022/01/01 08:48:02;;;;;;;34.65;12.70;;;9.70;99.90;;;;;;5053694;28;20126;-79
2022/01/01 08:50:27;;;;;;;25.65;11.85;;;9.70;99.90;;;;;;5085780;28;20126;-78
2022/01/01 08:52:53;;;;;;;29.25;12.60;;;9.70;99.90;;;;;;5061676;28;20058;-80
2022/01/01 08:55:19;;;;;;;28.70;11.88;;;9.70;99.90;;;;;;5062449;28;20048;-80
2022/01/01 08:57:45;;;;;;;30.63;11.27;;;9.80;99.90;;;;;;5053973;28;20128;-79
2022/01/01 09:00:12;;;;;;;28.05;10.63;;;9.70;99.90;;;;;;5036533;28;20079;-80
2022/01/01 09:02:37;;;;;;;24.55;11.73;;;9.80;99.90;;;;;;5100916;28;20042;-79
2022/01/01 09:05:04;;;;;;;28.65;12.32;;;9.80;99.90;;;;;;5054745;28;20044;-82
2022/01/01 09:07:30;;;;;;;25.10;12.05;;;9.80;99.90;;;;;;5068897;28;20044;-82
2022/01/01 09:10:00;;;;;;;32.85;12.25;;;9.80;99.90;;;;;;5071279;28;20059;-80
2022/01/01 09:12:27;;;;;;;25.48;11.63;;;9.80;99.90;;;;;;5083370;28;20169;-80
2022/01/01 09:14:54;;;;;;;26.67;12.55;;;9.80;99.90;;;;;;5083490;28;20408;-80
2022/01/01 09:17:20;;;;;;;24.38;11.55;;;9.70;99.90;;;;;;5073395;28;20123;-79
2022/01/01 09:19:46;;;;;;;27.08;11.27;;;9.70;99.90;;;;;;5058005;28;20052;-80
2022/01/01 09:22:12;;;;;;;24.80;11.23;;;9.70;99.90;;;;;;5056661;28;20500;-80
2022/01/01 09:24:38;;;;;;;26.00;12.38;;;9.70;99.90;;;;;;5090900;28;20059;-80
2022/01/01 09:27:06;;;;;;;29.63;14.13;;;9.70;99.90;;;;;;5054234;28;20052;-79
2022/01/01 09:29:31;;;;;;;27.73;12.82;;;9.70;99.90;;;;;;5085444;28;20036;-80
2022/01/01 09:31:57;;;;;;;26.70;12.70;;;9.70;99.90;;;;;;5072739;28;20051;-80
2022/01/01 09:34:23;;;;;;;30.42;12.60;;;9.80;99.90;;;;;;5089594;28;20040;-81
2022/01/01 09:36:50;;;;;;;27.40;13.23;;;9.80;99.90;;;;;;5057123;28;20497;-80
2022/01/01 09:39:17;;;;;;;29.58;13.95;;;9.80;99.90;;;;;;5068144;28;20058;-80
2022/01/01 09:41:43;;;;;;;28.42;13.57;;;9.80;99.90;;;;;;5067597;28;20048;-79
2022/01/01 09:44:15;;;;;;;29.20;12.68;;;9.80;99.90;;;;;;5087060;28;20044;-80
2022/01/01 09:46:44;;;;;;;29.90;15.00;;;9.80;99.90;;;;;;5080977;28;20075;-80
2022/01/01 09:49:13;;;;;;;34.05;15.48;;;9.80;99.90;;;;;;5073735;28;20044;-80
2022/01/01 09:51:40;;;;;;;33.22;16.13;;;9.80;99.90;;;;;;5086364;28;20436;-80
2022/01/01 09:54:07;;;;;;;37.35;16.27;;;9.90;99.90;;;;;;5083506;28;20400;-79
2022/01/01 09:56:33;;;;;;;32.20;16.48;;;9.90;99.90;;;;;;5057331;28;20036;-79
2022/01/01 09:58:59;;;;;;;36.08;16.38;;;9.90;99.90;;;;;;5041141;28;20039;-79
2022/01/01 10:01:25;;;;;;;33.78;16.60;;;10.00;99.90;;;;;;5058706;28;20119;-79
2022/01/01 10:03:52;;;;;;;33.58;16.90;;;10.00;99.90;;;;;;5085032;28;20035;-79
2022/01/01 10:06:19;;;;;;;37.30;17.83;;;10.10;99.90;;;;;;5071769;28;20084;-79
2022/01/01 10:08:49;;;;;;;39.05;17.13;;;10.10;99.90;;;;;;5083361;28;20070;-79
2022/01/01 10:11:19;;;;;;;35.40;17.52;;;10.20;99.90;;;;;;5085900;28;20059;-79
2022/01/01 10:13:46;;;;;;;36.33;18.83;;;10.20;99.90;;;;;;5066157;28;20052;-79
2022/01/01 10:16:14;;;;;;;34.20;22.17;;;10.30;99.90;;;;;;5066940;28;20152;-80
2022/01/01 10:18:46;;;;;;;36.30;18.88;;;10.40;99.90;;;;;;5068472;28;20044;-80
2022/01/01 10:21:23;;;;;;;31.90;17.38;;;10.50;99.90;;;;;;5066880;28;20040;-79
2022/01/01 10:23:52;;;;;;;29.15;16.85;;;10.60;99.90;;;;;;5081540;28;20047;-79
2022/01/01 10:29:11;;;;;;;30.20;15.88;;;10.80;99.90;;;;;;5080084;28;20044;-80
2022/01/01 10:31:38;;;;;;;35.13;17.58;;;10.90;99.90;;;;;;5068233;28;20044;-80
2022/01/01 10:34:13;;;;;;;30.92;17.40;;;11.10;99.90;;;;;;5067478;28;20496;-79
2022/01/01 10:36:39;;;;;;;27.20;15.57;;;11.30;99.90;;;;;;5081550;28;20056;-80
2022/01/01 10:39:09;;;;;;;29.80;14.32;;;11.40;99.90;;;;;;5051453;28;20050;-79
2022/01/01 10:42:12;;;;;;;24.27;13.00;;;11.50;99.90;;;;;;5082317;28;20489;-79
2022/01/01 10:44:38;;;;;;;24.40;12.85;;;11.50;99.90;;;;;;5025993;28;20056;-80
2022/01/01 10:47:31;;;;;;;24.52;13.20;;;11.50;99.90;;;;;;5066689;28;20122;-79
2022/01/01 10:52:45;;;;;;;19.52;11.82;;;11.50;99.90;;;;;;5082990;28;20415;-80
2022/01/01 10:55:11;;;;;;;22.40;12.27;;;11.50;99.90;;;;;;5066265;28;20048;-80
2022/01/01 10:57:41;;;;;;;22.27;11.02;;;11.50;99.90;;;;;;5064423;28;20040;-81
2022/01/01 11:00:17;;;;;;;20.60;11.88;;;11.40;99.90;;;;;;5069104;28;20044;-80
2022/01/01 11:02:57;;;;;;;22.88;11.10;;;11.30;99.90;;;;;;5058674;28;20050;-80
2022/01/01 11:05:27;;;;;;;19.13;10.65;;;11.30;99.90;;;;;;5060698;28;20139;-80
2022/01/01 11:07:53;;;;;;;19.50;10.70;;;11.20;99.90;;;;;;5077381;28;20062;-80
2022/01/01 11:10:21;;;;;;;18.52;10.50;;;11.20;99.90;;;;;;5067403;28;20044;-80
2022/01/01 11:12:49;;;;;;;20.27;10.32;;;11.20;99.90;;;;;;5064708;28;20052;-80
2022/01/01 11:15:15;;;;;;;22.73;10.80;;;11.10;99.90;;;;;;5066869;28;20084;-80
2022/01/01 11:17:46;;;;;;;16.48;9.93;;;11.00;99.90;;;;;;5068024;28;20449;-81
2022/01/01 11:20:12;;;;;;;21.75;11.57;;;11.00;99.90;;;;;;5069629;28;20127;-80
2022/01/01 11:22:38;;;;;;;20.38;11.95;;;10.90;99.90;;;;;;5061655;28;20063;-80
2022/01/01 11:25:04;;;;;;;21.15;10.98;;;10.90;99.90;;;;;;5066688;28;20048;-80
2022/01/01 11:27:34;;;;;;;23.38;11.25;;;10.90;99.90;;;;;;5065259;28;20393;-80
2022/01/01 11:30:06;;;;;;;21.08;11.20;;;10.90;99.90;;;;;;5067803;28;20056;-80
2022/01/01 11:32:43;;;;;;;17.88;10.60;;;10.90;99.90;;;;;;5079241;28;20044;-80
2022/01/01 11:35:18;;;;;;;24.23;11.35;;;10.90;99.90;;;;;;5085093;28;20122;-80
2022/01/01 11:37:57;;;;;;;19.90;11.02;;;10.90;99.90;;;;;;5076701;28;20494;-81
2022/01/01 11:40:24;;;;;;;21.42;11.20;;;10.90;99.90;;;;;;5067645;28;20055;-80
2022/01/01 11:42:50;;;;;;;17.40;9.70;;;10.90;99.90;;;;;;5062072;28;20110;-80
2022/01/01 11:45:43;;;;;;;23.15;10.93;;;10.90;99.90;;;;;;5047230;28;20043;-80
2022/01/01 11:48:43;;;;;;;17.58;11.18;;;10.90;99.90;;;;;;5082011;28;20052;-81
2022/01/01 11:51:38;;;;;;;21.20;11.40;;;11.00;99.90;;;;;;5064205;28;20040;-80
2022/01/01 11:54:32;;;;;;;17.42;10.90;;;11.00;99.90;;;;;;5066665;28;20511;-80
2022/01/01 11:56:59;;;;;;;20.58;10.05;;;11.00;99.90;;;;;;5081279;28;20049;-80
2022/01/01 11:59:31;;;;;;;18.58;10.18;;;11.00;99.90;;;;;;5063795;28;20048;-80
2022/01/01 12:02:04;;;;;;;21.95;10.70;;;11.00;99.90;;;;;;5066355;28;20127;-80
2022/01/01 12:04:39;;;;;;;18.83;10.50;;;11.00;99.90;;;;;;5081899;28;20494;-80
2022/01/01 12:07:15;;;;;;;17.60;10.15;;;11.00;99.90;;;;;;5064326;28;20060;-80
2022/01/01 12:12:49;;;;;;;17.80;10.55;;;11.00;99.90;;;;;;5079119;28;20055;-80
2022/01/01 12:15:24;;;;;;;20.10;10.18;;;11.00;99.90;;;;;;5065907;28;20051;-80
2022/01/01 12:17:53;;;;;;;17.03;10.10;;;11.00;99.90;;;;;;5080351;28;20498;-80
2022/01/01 12:20:35;;;;;;;19.27;11.52;;;11.10;99.90;;;;;;5081821;28;20290;-80
2022/01/01 12:23:04;;;;;;;20.23;11.25;;;11.10;99.90;;;;;;5081811;28;20082;-80
2022/01/01 12:25:32;;;;;;;19.65;10.70;;;11.10;99.90;;;;;;5068055;28;20550;-81
2022/01/01 12:28:09;;;;;;;23.48;11.38;;;11.20;99.90;;;;;;5063628;28;20557;-80
2022/01/01 12:30:51;;;;;;;17.23;10.68;;;11.20;99.90;;;;;;5080895;28;20044;-79
2022/01/01 12:33:39;;;;;;;18.65;11.20;;;11.20;99.90;;;;;;5080722;28;20044;-78
2022/01/01 12:36:08;;;;;;;19.10;10.68;;;11.20;99.90;;;;;;5075459;28;20052;-79
2022/01/01 12:38:34;;;;;;;17.17;11.35;;;11.20;99.90;;;;;;5074165;28;20050;-79
2022/01/01 12:41:01;;;;;;;18.83;12.25;;;11.20;99.90;;;;;;5058616;28;20541;-79
2022/01/01 12:43:29;;;;;;;21.13;12.95;;;11.30;99.90;;;;;;5065330;28;20543;-79
2022/01/01 12:45:58;;;;;;;20.70;13.50;;;11.30;99.90;;;;;;5065548;28;20517;-80
2022/01/01 12:48:32;;;;;;;23.73;15.40;;;11.40;99.90;;;;;;5060582;28;20040;-81